createdAt,value
2019-04-18T00:00:43.391Z,99.90
2019-04-18T00:20:59.806Z,99.90
2019-04-18T00:26:10.552Z,99.90
2019-04-18T00:31:09.306Z,99.90
2019-04-18T00:36:15.293Z,99.90
2019-04-18T00:41:18.847Z,99.90
2019-04-18T00:46:22.554Z,99.90
2019-04-18T01:01:32.890Z,99.90
2019-04-18T01:16:43.461Z,99.90
2019-04-18T01:31:54.030Z,99.90
2019-04-18T01:42:08.546Z,99.90
2019-04-18T01:47:12.319Z,99.90
2019-04-18T01:52:16.136Z,99.90
2019-04-18T01:57:19.908Z,99.90
2019-04-18T02:07:28.791Z,99.90
2019-04-18T02:22:39.784Z,99.90
2019-04-18T02:32:46.853Z,99.90
2019-04-18T02:47:57.265Z,99.90
2019-04-18T02:53:00.954Z,99.90
2019-04-18T02:58:09.219Z,99.90
2019-04-18T03:03:18.101Z,99.90
2019-04-18T03:08:24.891Z,99.90
2019-04-18T03:13:27.374Z,99.90
2019-04-18T03:18:33.003Z,99.90
2019-04-18T03:23:39.125Z,99.90
2019-04-18T03:28:42.925Z,99.90
2019-04-18T03:33:48.025Z,99.90
2019-04-18T03:38:51.808Z,99.90
2019-04-18T03:43:55.629Z,99.90
2019-04-18T03:48:59.403Z,99.90
2019-04-18T03:54:07.172Z,99.90
2019-04-18T03:59:09.173Z,99.90
2019-04-18T04:04:20.857Z,99.90
2019-04-18T04:09:19.598Z,99.90
2019-04-18T04:14:23.281Z,99.90
2019-04-18T04:19:27.393Z,99.90
2019-04-18T04:24:31.075Z,99.90
2019-04-18T04:29:39.116Z,99.90
2019-04-18T04:34:43.491Z,99.90
2019-04-18T04:39:46.159Z,99.90
2019-04-18T04:44:49.887Z,99.90
2019-04-18T04:49:53.675Z,99.90
2019-04-18T04:54:57.536Z,99.50
2019-04-18T05:00:14.840Z,97.30
2019-04-18T05:05:18.989Z,95.40
2019-04-18T05:10:22.682Z,94.30
2019-04-18T05:15:26.355Z,93.60
2019-04-18T05:20:30.133Z,93.20
2019-04-18T05:25:33.829Z,93.10
2019-04-18T05:30:37.691Z,92.80
2019-04-18T05:35:41.445Z,94.00
2019-04-18T05:40:45.186Z,93.90
2019-04-18T05:45:48.966Z,93.50
2019-04-18T05:51:00.816Z,93.50
2019-04-18T05:56:04.510Z,94.40
2019-04-18T06:06:31.043Z,94.80
2019-04-18T06:11:44.805Z,94.50
2019-04-18T06:17:03.931Z,94.30
2019-04-18T06:22:17.067Z,93.40
2019-04-18T06:32:56.582Z,88.60
2019-04-18T06:37:58.115Z,87.00
2019-04-18T06:43:02.266Z,86.50
2019-04-18T06:48:06.547Z,84.20
2019-04-18T06:53:13.143Z,83.30
2019-04-18T06:58:16.057Z,83.60
2019-04-18T07:03:20.880Z,84.00
2019-04-18T07:08:45.161Z,80.80
2019-04-18T07:13:48.577Z,80.00
2019-04-18T07:23:55.670Z,77.20
2019-04-18T07:34:04.434Z,75.90
2019-04-18T07:44:19.106Z,70.10
2019-04-18T07:49:22.814Z,65.80
2019-04-18T07:59:29.798Z,68.70
2019-04-18T08:04:33.477Z,69.40
2019-04-18T08:09:39.120Z,63.30
2019-04-18T08:14:42.789Z,59.60
2019-04-18T08:19:46.826Z,59.00
2019-04-18T08:24:50.523Z,59.50
2019-04-18T08:29:54.213Z,57.30
2019-04-18T08:34:57.892Z,57.10
2019-04-18T08:40:20.946Z,54.40
2019-04-18T08:45:29.730Z,51.70
2019-04-18T08:50:55.361Z,46.30
2019-04-18T08:56:01.785Z,50.90
2019-04-18T09:01:04.676Z,52.70
2019-04-18T09:06:08.689Z,50.00
2019-04-18T09:11:22.171Z,54.80
2019-04-18T09:16:18.772Z,47.30
2019-04-18T09:21:25.124Z,45.80
2019-04-18T09:26:30.313Z,43.40
2019-04-18T09:31:34.610Z,42.30
2019-04-18T09:36:38.306Z,43.20
2019-04-18T09:41:42.362Z,40.90
2019-04-18T09:46:46.069Z,41.40
2019-04-18T09:51:49.768Z,44.10
2019-04-18T09:56:53.454Z,41.60
2019-04-18T10:01:57.153Z,41.50
2019-04-18T10:07:00.869Z,42.20
2019-04-18T10:12:07.402Z,41.80
2019-04-18T10:17:14.506Z,38.80
2019-04-18T10:22:19.288Z,37.80
2019-04-18T10:27:26.757Z,37.10
2019-04-18T10:32:30.435Z,35.20
2019-04-18T10:37:34.134Z,38.30
2019-04-18T10:42:38.107Z,36.30
2019-04-18T10:48:00.893Z,38.60
2019-04-18T10:53:05.075Z,35.90
2019-04-18T10:58:09.459Z,39.80
2019-04-18T11:03:13.309Z,34.70
2019-04-18T11:18:25.313Z,36.90
2019-04-18T11:23:29.054Z,36.20
2019-04-18T11:33:36.050Z,30.30
2019-04-18T11:43:43.320Z,29.50
2019-04-18T11:48:46.993Z,29.60
2019-04-18T11:59:03.869Z,30.40
2019-04-18T12:04:20.131Z,28.80
2019-04-18T12:09:23.809Z,29.90
2019-04-18T12:14:27.484Z,30.40
2019-04-18T12:19:31.150Z,30.00
2019-04-18T12:24:39.875Z,28.30
2019-04-18T12:29:40.357Z,28.50
2019-04-18T12:34:44.130Z,29.50
2019-04-18T12:39:48.078Z,28.30
2019-04-18T12:44:51.829Z,29.50
2019-04-18T12:49:55.596Z,28.90
2019-04-18T13:05:07.124Z,28.10
2019-04-18T13:10:39.649Z,28.30
2019-04-18T13:15:50.066Z,27.80
2019-04-18T13:20:53.809Z,28.20
2019-04-18T13:25:57.485Z,27.90
2019-04-18T13:31:01.869Z,28.80
2019-04-18T13:36:05.837Z,27.80
2019-04-18T13:41:09.699Z,28.40
2019-04-18T13:46:14.474Z,28.10
2019-04-18T13:56:21.989Z,28.00
2019-04-18T14:01:25.761Z,29.20
2019-04-18T14:11:33.041Z,29.50
2019-04-18T14:16:36.781Z,28.40
2019-04-18T14:21:40.578Z,30.50
2019-04-18T14:46:59.118Z,27.80
2019-04-18T14:52:02.899Z,28.20
2019-04-18T14:57:06.661Z,29.30
2019-04-18T15:02:11.012Z,27.50
2019-04-18T15:07:15.251Z,27.50
2019-04-18T15:12:19.270Z,26.90
2019-04-18T15:27:30.206Z,27.50
2019-04-18T15:32:35.064Z,28.40
2019-04-18T15:37:38.786Z,28.60
2019-04-18T15:42:42.566Z,28.60
2019-04-18T15:47:46.345Z,27.00
2019-04-18T15:57:54.021Z,28.40
2019-04-18T16:02:58.298Z,27.10
2019-04-18T16:08:04.093Z,29.20
2019-04-18T16:18:11.150Z,29.00
2019-04-18T16:53:43.415Z,39.50
2019-04-18T17:29:13.119Z,50.20
2019-04-18T17:34:30.819Z,51.00
2019-04-18T17:44:37.884Z,54.00
2019-04-18T17:59:45.553Z,59.00
2019-04-18T18:04:57.748Z,60.90
2019-04-18T18:09:57.055Z,62.70
2019-04-18T18:15:03.764Z,64.60
2019-04-18T18:20:10.628Z,66.50
2019-04-18T18:25:14.430Z,68.50
2019-04-18T18:30:25.030Z,69.80
2019-04-18T18:35:32.816Z,70.40
2019-04-18T19:16:18.240Z,80.50
2019-04-18T19:36:43.479Z,84.10
2019-04-18T19:41:40.905Z,85.60
2019-04-18T19:56:42.020Z,87.10
2019-04-18T20:12:04.065Z,88.70
2019-04-18T20:22:07.537Z,90.00
2019-04-18T20:42:45.598Z,91.40
2019-04-18T20:52:55.294Z,92.00
2019-04-18T21:33:18.162Z,94.00
2019-04-18T21:48:32.682Z,94.60
2019-04-18T21:58:53.588Z,94.80
2019-04-18T22:29:08.732Z,96.00
2019-04-18T22:39:25.132Z,96.10
2019-04-18T22:49:30.418Z,96.50
2019-04-18T22:59:47.315Z,96.80
2019-04-18T23:04:44.822Z,97.00
2019-04-18T23:09:51.265Z,97.30
2019-04-18T23:20:00.264Z,97.50
2019-04-18T23:25:04.202Z,97.70
2019-04-18T23:30:13.607Z,97.90
2019-04-18T23:40:28.102Z,98.20
2019-04-18T23:50:31.610Z,99.00
